createdAt,value
2017-11-22T00:00:40.304Z,8.20
2017-11-22T00:03:08.431Z,8.30
2017-11-22T00:05:37.335Z,8.20
2017-11-22T00:08:05.472Z,8.20
2017-11-22T00:10:34.354Z,8.20
2017-11-22T00:13:03.236Z,8.20
2017-11-22T00:15:31.338Z,8.20
2017-11-22T00:17:59.463Z,8.20
2017-11-22T00:20:27.579Z,8.20
2017-11-22T00:22:55.715Z,8.10
2017-11-22T00:25:23.837Z,8.10
2017-11-22T00:27:51.951Z,8.10
2017-11-22T00:30:20.079Z,8.10
2017-11-22T00:32:48.206Z,8.10
2017-11-22T00:35:16.320Z,8.10
2017-11-22T00:37:44.441Z,8.00
2017-11-22T00:40:12.554Z,8.00
2017-11-22T00:42:40.692Z,7.90
2017-11-22T00:45:08.812Z,7.80
2017-11-22T00:47:36.948Z,7.80
2017-11-22T00:50:05.826Z,7.70
2017-11-22T00:52:33.954Z,7.70
2017-11-22T00:55:02.073Z,7.70
2017-11-22T00:57:30.194Z,7.60
2017-11-22T00:59:58.305Z,7.50
2017-11-22T01:02:26.435Z,7.40
2017-11-22T01:04:54.551Z,7.30
2017-11-22T01:07:22.686Z,7.30
2017-11-22T01:09:50.824Z,7.20
2017-11-22T01:12:19.717Z,7.10
2017-11-22T01:14:48.606Z,7.10
2017-11-22T01:17:17.491Z,7.00
2017-11-22T01:19:46.363Z,7.00
2017-11-22T01:22:15.277Z,7.00
2017-11-22T01:24:43.396Z,7.00
2017-11-22T01:27:12.283Z,6.90
2017-11-22T01:29:40.409Z,6.90
2017-11-22T01:32:09.290Z,6.80
2017-11-22T01:34:38.178Z,6.80
2017-11-22T01:37:07.055Z,6.70
2017-11-22T01:39:35.191Z,6.70
2017-11-22T01:42:03.294Z,6.70
2017-11-22T01:44:31.428Z,6.60
2017-11-22T01:46:59.539Z,6.60
2017-11-22T01:49:27.653Z,6.50
2017-11-22T01:51:55.776Z,6.50
2017-11-22T01:54:23.895Z,6.40
2017-11-22T01:56:52.000Z,6.40
2017-11-22T01:59:20.126Z,6.40
2017-11-22T02:01:48.244Z,6.30
2017-11-22T02:04:16.374Z,6.30
2017-11-22T02:06:44.492Z,6.20
2017-11-22T02:09:12.612Z,6.20
2017-11-22T02:11:40.730Z,6.20
2017-11-22T02:14:08.858Z,6.20
2017-11-22T02:16:36.965Z,6.10
2017-11-22T02:19:05.096Z,6.10
2017-11-22T02:21:33.955Z,6.10
2017-11-22T02:24:02.071Z,6.10
2017-11-22T02:26:30.214Z,6.10
2017-11-22T02:28:59.100Z,6.40
2017-11-22T02:31:27.226Z,6.40
2017-11-22T02:33:55.365Z,6.50
2017-11-22T02:36:23.517Z,6.70
2017-11-22T02:38:51.628Z,6.80
2017-11-22T02:41:20.540Z,7.10
2017-11-22T02:43:48.666Z,7.10
2017-11-22T02:46:17.551Z,7.30
2017-11-22T02:48:46.440Z,7.30
2017-11-22T02:51:15.326Z,7.40
2017-11-22T02:53:44.219Z,7.40
2017-11-22T02:56:13.099Z,7.50
2017-11-22T02:58:41.215Z,7.50
2017-11-22T03:01:09.344Z,7.50
2017-11-22T03:03:37.532Z,7.50
2017-11-22T03:06:06.445Z,7.50
2017-11-22T03:08:34.552Z,7.50
2017-11-22T03:11:03.445Z,7.30
2017-11-22T03:13:31.554Z,7.30
2017-11-22T03:16:00.457Z,7.10
2017-11-22T03:18:28.588Z,7.10
2017-11-22T03:20:56.732Z,6.90
2017-11-22T03:23:24.835Z,6.90
2017-11-22T03:25:53.107Z,6.80
2017-11-22T03:28:21.217Z,6.70
2017-11-22T03:30:50.102Z,6.50
2017-11-22T03:33:18.992Z,6.50
2017-11-22T03:35:47.896Z,6.40
2017-11-22T03:38:16.009Z,6.30
2017-11-22T03:40:44.143Z,6.30
2017-11-22T03:43:12.259Z,6.20
2017-11-22T03:45:40.400Z,6.10
2017-11-22T03:48:14.160Z,6.10
2017-11-22T03:50:47.793Z,6.00
2017-11-22T03:53:21.441Z,5.90
2017-11-22T03:55:49.549Z,5.90
2017-11-22T03:58:18.448Z,5.70
2017-11-22T04:00:47.330Z,5.70
2017-11-22T04:03:17.033Z,5.60
2017-11-22T04:05:51.588Z,5.60
2017-11-22T04:08:19.713Z,5.60
2017-11-22T04:10:47.825Z,5.50
2017-11-22T04:13:15.952Z,5.50
2017-11-22T04:15:44.064Z,5.40
2017-11-22T04:18:12.313Z,5.40
2017-11-22T04:23:32.143Z,5.20
2017-11-22T04:26:00.268Z,5.20
2017-11-22T04:28:28.417Z,5.20
2017-11-22T04:30:56.522Z,5.10
2017-11-22T04:33:24.647Z,5.10
2017-11-22T04:35:52.788Z,5.00
2017-11-22T04:38:21.668Z,5.00
2017-11-22T04:40:49.776Z,4.90
2017-11-22T04:43:17.911Z,4.90
2017-11-22T04:45:46.794Z,4.90
2017-11-22T04:48:14.924Z,4.80
2017-11-22T04:50:43.032Z,4.80
2017-11-22T04:53:11.235Z,4.80
2017-11-22T04:55:39.363Z,4.80
2017-11-22T04:58:07.493Z,4.70
2017-11-22T05:00:35.604Z,4.70
2017-11-22T05:03:03.712Z,4.70
2017-11-22T05:05:32.603Z,4.70
2017-11-22T05:08:01.492Z,4.70
2017-11-22T05:10:30.373Z,4.70
2017-11-22T05:12:59.268Z,4.70
2017-11-22T05:15:28.150Z,4.70
2017-11-22T05:17:57.043Z,4.70
2017-11-22T05:20:25.921Z,4.60
2017-11-22T05:22:54.052Z,4.60
2017-11-22T05:25:22.171Z,4.60
2017-11-22T05:27:51.068Z,4.60
2017-11-22T05:30:19.969Z,4.60
2017-11-22T05:32:48.088Z,4.60
2017-11-22T05:35:16.237Z,4.60
2017-11-22T05:37:44.337Z,4.60
2017-11-22T05:40:12.512Z,4.60
2017-11-22T05:42:40.630Z,4.50
2017-11-22T05:45:08.750Z,4.50
2017-11-22T05:47:36.866Z,4.50
2017-11-22T05:50:05.759Z,4.40
2017-11-22T05:52:34.636Z,4.40
2017-11-22T05:55:03.540Z,4.40
2017-11-22T05:57:32.422Z,4.40
2017-11-22T06:00:07.890Z,4.40
2017-11-22T06:02:36.016Z,4.40
2017-11-22T06:05:04.150Z,4.40
2017-11-22T06:07:32.245Z,4.40
2017-11-22T06:10:00.395Z,4.40
2017-11-22T06:12:28.504Z,4.30
2017-11-22T06:14:56.644Z,4.40
2017-11-22T06:17:24.759Z,4.30
2017-11-22T06:19:53.651Z,4.30
2017-11-22T06:22:22.528Z,4.30
2017-11-22T06:24:50.672Z,4.30
2017-11-22T06:27:18.789Z,4.30
2017-11-22T06:29:49.554Z,4.30
2017-11-22T06:32:17.676Z,4.20
2017-11-22T06:34:45.789Z,4.30
2017-11-22T06:37:14.021Z,4.20
2017-11-22T06:39:42.162Z,4.20
2017-11-22T06:42:10.295Z,4.20
2017-11-22T06:44:39.182Z,4.30
2017-11-22T06:47:08.052Z,4.20
2017-11-22T06:49:36.181Z,4.20
2017-11-22T06:52:04.305Z,4.30
2017-11-22T06:54:33.189Z,4.20
2017-11-22T06:57:01.312Z,4.20
2017-11-22T06:59:29.449Z,4.30
2017-11-22T07:01:59.291Z,4.30
2017-11-22T07:04:27.420Z,4.30
2017-11-22T07:06:56.291Z,4.30
2017-11-22T07:09:24.409Z,4.30
2017-11-22T07:11:52.529Z,4.30
2017-11-22T07:14:20.634Z,4.40
2017-11-22T07:16:55.046Z,4.50
2017-11-22T07:19:23.929Z,4.50
2017-11-22T07:21:52.059Z,4.50
2017-11-22T07:24:20.176Z,4.60
2017-11-22T07:26:48.312Z,4.60
2017-11-22T07:29:16.429Z,4.60
2017-11-22T07:31:45.327Z,4.70
2017-11-22T07:34:14.217Z,4.80
2017-11-22T07:36:44.957Z,4.90
2017-11-22T07:39:13.100Z,4.90
2017-11-22T07:41:41.227Z,5.00
2017-11-22T07:44:09.357Z,5.10
2017-11-22T07:46:37.471Z,5.20
2017-11-22T07:49:05.591Z,5.30
2017-11-22T07:51:39.361Z,5.30
2017-11-22T07:54:07.489Z,5.50
2017-11-22T07:56:36.363Z,5.80
2017-11-22T07:59:06.185Z,5.90
2017-11-22T08:01:34.298Z,5.90
2017-11-22T08:04:08.014Z,6.10
2017-11-22T08:06:36.131Z,6.20
2017-11-22T08:09:05.021Z,6.50
2017-11-22T08:11:33.905Z,6.70
2017-11-22T08:14:02.807Z,6.80
2017-11-22T08:16:31.700Z,7.00
2017-11-22T08:18:59.824Z,7.00
2017-11-22T08:21:27.953Z,7.20
2017-11-22T08:23:56.081Z,7.30
2017-11-22T08:26:24.202Z,7.40
2017-11-22T08:28:52.332Z,7.60
2017-11-22T08:31:20.456Z,7.70
2017-11-22T08:33:48.599Z,7.80
2017-11-22T08:36:17.497Z,8.20
2017-11-22T08:38:46.387Z,8.30
2017-11-22T08:41:15.274Z,8.50
2017-11-22T08:43:44.172Z,8.70
2017-11-22T08:46:13.069Z,8.80
2017-11-22T08:48:41.207Z,8.80
2017-11-22T08:51:09.328Z,8.90
2017-11-22T08:53:38.220Z,9.10
2017-11-22T08:56:12.044Z,9.10
2017-11-22T08:58:40.190Z,9.20
2017-11-22T09:01:08.319Z,9.30
2017-11-22T09:03:42.124Z,9.40
2017-11-22T09:06:15.804Z,9.50
2017-11-22T09:08:43.946Z,9.70
2017-11-22T09:11:12.112Z,9.80
2017-11-22T09:13:40.225Z,9.90
2017-11-22T09:16:08.386Z,10.00
2017-11-22T09:18:54.058Z,10.20
2017-11-22T09:21:22.199Z,10.30
2017-11-22T09:24:05.662Z,10.40
2017-11-22T09:26:33.784Z,10.40
2017-11-22T09:29:02.690Z,10.70
2017-11-22T09:31:37.225Z,10.70
2017-11-22T09:34:11.021Z,10.70
2017-11-22T09:36:39.172Z,10.80
2017-11-22T09:39:07.323Z,10.90
2017-11-22T09:41:35.442Z,10.90
2017-11-22T09:44:03.580Z,11.00
2017-11-22T09:46:31.703Z,11.10
2017-11-22T09:48:59.850Z,11.20
2017-11-22T09:51:27.990Z,11.20
2017-11-22T09:53:56.129Z,11.20
2017-11-22T09:56:24.245Z,11.40
2017-11-22T09:58:53.125Z,11.50
2017-11-22T10:01:21.312Z,11.50
2017-11-22T10:03:50.196Z,11.70
2017-11-22T10:06:19.105Z,11.80
2017-11-22T10:08:47.996Z,11.80
2017-11-22T10:11:16.943Z,11.90
2017-11-22T10:13:45.061Z,11.90
2017-11-22T10:16:14.021Z,12.00
2017-11-22T10:18:42.169Z,12.00
2017-11-22T10:21:10.286Z,12.10
2017-11-22T10:23:39.176Z,12.30
2017-11-22T10:26:08.082Z,12.40
2017-11-22T10:28:36.197Z,12.30
2017-11-22T10:31:04.348Z,12.50
2017-11-22T10:33:37.436Z,12.60
2017-11-22T10:36:05.576Z,12.70
2017-11-22T10:38:34.606Z,12.90
2017-11-22T10:41:02.729Z,12.90
2017-11-22T10:43:31.618Z,13.30
2017-11-22T10:46:00.539Z,13.60
2017-11-22T10:48:28.666Z,13.60
2017-11-22T10:50:56.805Z,14.00
2017-11-22T10:53:24.937Z,14.40
2017-11-22T10:55:53.857Z,15.10
2017-11-22T10:58:21.986Z,15.10
2017-11-22T11:00:50.122Z,15.40
2017-11-22T11:03:18.257Z,15.70
2017-11-22T11:08:15.840Z,16.50
2017-11-22T11:10:43.983Z,17.00
2017-11-22T11:13:12.127Z,17.40
2017-11-22T11:15:40.455Z,17.80
2017-11-22T11:18:10.387Z,18.40
2017-11-22T11:20:38.526Z,18.40
2017-11-22T11:23:06.668Z,18.80
2017-11-22T11:25:34.755Z,19.20
2017-11-22T11:28:03.665Z,19.50
2017-11-22T11:30:32.566Z,19.80
2017-11-22T11:33:01.475Z,19.80
2017-11-22T11:35:41.469Z,19.80
2017-11-22T11:38:09.590Z,19.90
2017-11-22T11:40:37.718Z,20.20
2017-11-22T11:43:05.836Z,20.40
2017-11-22T11:45:33.951Z,20.50
2017-11-22T11:48:02.133Z,20.50
2017-11-22T11:50:31.999Z,20.70
2017-11-22T11:53:00.140Z,20.90
2017-11-22T11:55:28.264Z,21.20
2017-11-22T11:57:56.397Z,21.40
2017-11-22T12:00:24.519Z,21.30
2017-11-22T12:02:52.657Z,21.20
2017-11-22T12:05:20.825Z,21.40
2017-11-22T12:07:49.949Z,21.50
2017-11-22T12:10:18.109Z,21.50
2017-11-22T12:12:47.020Z,21.40
2017-11-22T12:15:15.138Z,21.40
2017-11-22T12:17:44.062Z,21.30
2017-11-22T12:20:12.168Z,21.20
2017-11-22T12:22:44.209Z,21.20
2017-11-22T12:25:12.403Z,21.20
2017-11-22T12:27:40.527Z,21.20
2017-11-22T12:30:08.656Z,21.00
2017-11-22T12:32:36.795Z,20.70
2017-11-22T12:35:04.928Z,20.50
2017-11-22T12:37:33.839Z,20.30
2017-11-22T12:40:01.975Z,20.30
2017-11-22T12:42:32.832Z,20.20
2017-11-22T12:45:01.724Z,19.80
2017-11-22T12:47:30.616Z,19.70
2017-11-22T12:49:58.782Z,19.60
2017-11-22T12:52:26.880Z,19.60
2017-11-22T12:54:55.013Z,19.60
2017-11-22T12:57:23.152Z,19.60
2017-11-22T12:59:51.397Z,19.80
2017-11-22T13:02:19.514Z,19.80
2017-11-22T13:04:47.647Z,19.90
2017-11-22T13:07:15.772Z,20.00
2017-11-22T13:09:43.913Z,20.20
2017-11-22T13:12:12.021Z,20.40
2017-11-22T13:14:40.936Z,20.80
2017-11-22T13:17:09.150Z,20.80
2017-11-22T13:19:37.280Z,21.00
2017-11-22T13:22:05.400Z,20.90
2017-11-22T13:24:33.545Z,20.50
2017-11-22T13:27:01.677Z,20.00
2017-11-22T13:29:30.582Z,19.40
2017-11-22T13:31:58.716Z,19.30
2017-11-22T13:34:26.876Z,19.00
2017-11-22T13:36:55.003Z,18.80
2017-11-22T13:39:23.886Z,18.60
2017-11-22T13:41:54.808Z,18.50
2017-11-22T13:44:23.699Z,18.10
2017-11-22T13:46:52.616Z,17.80
2017-11-22T13:49:20.758Z,17.70
2017-11-22T13:51:49.687Z,17.30
2017-11-22T13:54:17.829Z,17.30
2017-11-22T13:56:46.724Z,17.00
2017-11-22T13:59:15.626Z,16.80
2017-11-22T14:01:44.540Z,16.70
2017-11-22T14:04:12.662Z,16.70
2017-11-22T14:06:41.552Z,16.50
2017-11-22T14:09:10.464Z,16.40
2017-11-22T14:11:38.605Z,16.40
2017-11-22T14:14:06.742Z,16.30
2017-11-22T14:16:34.871Z,16.20
2017-11-22T14:19:03.781Z,16.00
2017-11-22T14:21:31.900Z,16.00
2017-11-22T14:24:00.078Z,15.90
2017-11-22T14:26:28.175Z,15.90
2017-11-22T14:28:57.072Z,15.70
2017-11-22T14:31:25.975Z,15.60
2017-11-22T14:33:54.104Z,15.60
2017-11-22T14:36:22.242Z,15.60
2017-11-22T14:38:50.356Z,15.50
2017-11-22T14:41:18.566Z,15.40
2017-11-22T14:43:47.439Z,15.10
2017-11-22T14:46:17.383Z,15.00
2017-11-22T14:48:45.506Z,15.00
2017-11-22T14:51:13.637Z,14.90
2017-11-22T14:58:41.337Z,14.20
2017-11-22T15:01:09.466Z,14.20
2017-11-22T15:03:38.354Z,13.90
2017-11-22T15:06:07.241Z,13.80
2017-11-22T15:08:36.137Z,13.60
2017-11-22T15:11:04.274Z,13.60
2017-11-22T15:13:32.401Z,13.50
2017-11-22T15:16:00.556Z,13.30
2017-11-22T15:18:29.452Z,13.10
2017-11-22T15:20:57.631Z,13.00
2017-11-22T15:23:25.757Z,12.90
2017-11-22T15:25:54.672Z,12.70
2017-11-22T15:28:22.812Z,12.70
2017-11-22T15:30:50.973Z,12.60
2017-11-22T15:33:19.113Z,12.40
2017-11-22T15:35:47.265Z,12.30
2017-11-22T15:38:16.149Z,12.00
2017-11-22T15:40:45.067Z,12.00
2017-11-22T15:43:13.192Z,11.90
2017-11-22T15:45:41.350Z,11.80
2017-11-22T15:48:09.487Z,11.70
2017-11-22T15:50:37.611Z,11.50
2017-11-22T15:53:09.109Z,11.20
2017-11-22T15:55:37.256Z,11.00
2017-11-22T15:58:05.411Z,10.80
2017-11-22T16:00:33.567Z,10.60
2017-11-22T16:03:01.700Z,10.40
2017-11-22T16:05:30.619Z,10.00
2017-11-22T16:07:58.798Z,10.00
2017-11-22T16:10:26.948Z,9.90
2017-11-22T16:12:55.869Z,9.70
2017-11-22T16:15:24.022Z,9.60
2017-11-22T16:17:52.230Z,9.60
2017-11-22T16:20:21.140Z,9.30
2017-11-22T16:22:49.272Z,9.30
2017-11-22T16:25:17.477Z,9.20
2017-11-22T16:27:45.593Z,9.10
2017-11-22T16:30:13.773Z,9.00
2017-11-22T16:32:41.935Z,8.90
2017-11-22T16:35:10.863Z,8.80
2017-11-22T16:37:39.056Z,8.70
2017-11-22T16:40:07.214Z,8.70
2017-11-22T16:42:35.387Z,8.60
2017-11-22T16:45:03.528Z,8.50
2017-11-22T16:47:31.689Z,8.40
2017-11-22T16:49:59.823Z,8.40
2017-11-22T16:52:27.989Z,8.30
2017-11-22T16:54:56.128Z,8.30
2017-11-22T16:57:24.275Z,8.20
2017-11-22T16:59:53.166Z,8.00
2017-11-22T17:02:22.166Z,8.00
2017-11-22T17:04:51.087Z,7.90
2017-11-22T17:07:19.281Z,7.90
2017-11-22T17:09:47.456Z,7.90
2017-11-22T17:12:15.585Z,7.80
2017-11-22T17:14:44.510Z,7.70
2017-11-22T17:17:12.801Z,7.60
2017-11-22T17:19:40.930Z,7.60
2017-11-22T17:22:09.136Z,7.50
2017-11-22T17:24:37.347Z,7.50
2017-11-22T17:27:05.463Z,7.50
2017-11-22T17:29:34.471Z,7.40
2017-11-22T17:32:02.602Z,7.40
2017-11-22T17:34:31.534Z,7.30
2017-11-22T17:36:59.654Z,7.30
2017-11-22T17:39:27.823Z,7.30
2017-11-22T17:41:55.957Z,7.20
2017-11-22T17:44:24.092Z,7.20
2017-11-22T17:46:52.278Z,7.20
2017-11-22T17:49:20.470Z,7.10
2017-11-22T17:51:48.612Z,7.10
2017-11-22T17:54:17.506Z,7.00
2017-11-22T17:56:46.397Z,7.00
2017-11-22T17:59:14.535Z,6.90
2017-11-22T18:01:42.715Z,6.90
2017-11-22T18:04:10.893Z,6.90
2017-11-22T18:06:39.785Z,6.80
2017-11-22T18:09:08.725Z,6.70
2017-11-22T18:11:36.888Z,6.70
2017-11-22T18:14:05.069Z,6.70
2017-11-22T18:16:33.219Z,6.60
2017-11-22T18:19:01.334Z,6.60
2017-11-22T18:21:29.478Z,6.60
2017-11-22T18:23:57.594Z,6.60
2017-11-22T18:26:25.751Z,6.60
2017-11-22T18:28:53.924Z,6.60
2017-11-22T18:31:22.050Z,6.50
2017-11-22T18:33:50.932Z,6.50
2017-11-22T18:36:19.837Z,6.60
2017-11-22T18:38:47.984Z,6.50
2017-11-22T18:41:16.092Z,6.60
2017-11-22T18:43:44.240Z,6.60
2017-11-22T18:46:12.396Z,6.60
2017-11-22T18:48:40.543Z,6.60
2017-11-22T18:51:08.682Z,6.60
2017-11-22T18:53:36.808Z,6.60
2017-11-22T18:56:04.956Z,6.60
2017-11-22T18:58:33.106Z,6.50
2017-11-22T19:01:01.246Z,6.50
2017-11-22T19:03:30.169Z,6.40
2017-11-22T19:05:58.307Z,6.40
2017-11-22T19:08:27.189Z,6.30
2017-11-22T19:10:56.107Z,6.30
2017-11-22T19:13:24.242Z,6.20
2017-11-22T19:15:52.372Z,6.20
2017-11-22T19:18:20.486Z,6.20
2017-11-22T19:20:48.648Z,6.10
2017-11-22T19:23:16.871Z,6.10
2017-11-22T19:25:44.974Z,6.00
2017-11-22T19:28:13.321Z,6.00
2017-11-22T19:30:41.579Z,5.90
2017-11-22T19:33:10.482Z,5.70
2017-11-22T19:35:38.751Z,5.70
2017-11-22T19:38:06.879Z,5.70
2017-11-22T19:40:35.101Z,5.70
2017-11-22T19:43:03.262Z,5.60
2017-11-22T19:45:32.168Z,5.50
2017-11-22T19:48:00.316Z,5.50
2017-11-22T19:50:29.218Z,5.50
2017-11-22T19:52:58.180Z,5.40
2017-11-22T19:55:26.304Z,5.40
2017-11-22T19:57:54.413Z,5.40
2017-11-22T20:00:22.619Z,5.30
2017-11-22T20:02:50.760Z,5.30
2017-11-22T20:05:19.076Z,5.30
2017-11-22T20:07:47.590Z,5.20
2017-11-22T20:10:15.763Z,5.20
2017-11-22T20:12:43.919Z,5.10
2017-11-22T20:15:12.071Z,5.10
2017-11-22T20:17:41.003Z,5.00
2017-11-22T20:20:09.187Z,5.00
2017-11-22T20:22:37.350Z,5.00
2017-11-22T20:25:05.756Z,5.00
2017-11-22T20:27:33.880Z,4.90
2017-11-22T20:30:02.023Z,4.90
2017-11-22T20:32:30.205Z,4.80
2017-11-22T20:34:58.380Z,4.80
2017-11-22T20:37:26.545Z,4.80
2017-11-22T20:39:54.683Z,4.80
2017-11-22T20:42:22.844Z,4.70
2017-11-22T20:44:51.292Z,4.70
2017-11-22T20:47:21.638Z,4.60
2017-11-22T20:49:49.912Z,4.60
2017-11-22T20:52:18.075Z,4.60
2017-11-22T20:54:46.252Z,4.50
2017-11-22T20:57:14.531Z,4.40
2017-11-22T20:59:42.983Z,4.40
2017-11-22T21:02:12.082Z,4.40
2017-11-22T21:04:40.246Z,4.30
2017-11-22T21:07:09.064Z,4.30
2017-11-22T21:09:37.181Z,4.30
2017-11-22T21:12:05.364Z,4.30
2017-11-22T21:14:33.539Z,4.40
2017-11-22T21:17:01.840Z,4.30
2017-11-22T21:19:30.715Z,4.50
2017-11-22T21:22:00.736Z,4.50
2017-11-22T21:24:28.891Z,4.50
2017-11-22T21:26:57.004Z,4.60
2017-11-22T21:29:25.133Z,4.60
2017-11-22T21:31:53.340Z,4.70
2017-11-22T21:34:22.287Z,4.70
2017-11-22T21:36:50.420Z,4.70
2017-11-22T21:39:18.575Z,4.70
2017-11-22T21:41:47.459Z,4.60
2017-11-22T21:44:15.697Z,4.60
2017-11-22T21:46:43.846Z,4.60
2017-11-22T21:49:12.360Z,4.60
2017-11-22T21:51:40.485Z,4.60
2017-11-22T21:54:09.058Z,4.50
2017-11-22T21:56:37.315Z,4.50
2017-11-22T21:59:06.195Z,4.50
2017-11-22T22:01:35.079Z,4.50
2017-11-22T22:04:03.988Z,4.50
2017-11-22T22:06:32.941Z,4.50
2017-11-22T22:09:01.120Z,4.50
2017-11-22T22:11:29.224Z,4.50
2017-11-22T22:13:57.467Z,4.50
2017-11-22T22:16:26.332Z,4.50
2017-11-22T22:18:54.480Z,4.40
2017-11-22T22:21:23.440Z,4.40
2017-11-22T22:23:52.350Z,4.40
2017-11-22T22:26:20.480Z,4.40
2017-11-22T22:28:48.616Z,4.40
2017-11-22T22:31:16.933Z,4.40
2017-11-22T22:33:45.061Z,4.30
2017-11-22T22:36:13.192Z,4.30
2017-11-22T22:38:41.317Z,4.30
2017-11-22T22:41:09.435Z,4.30
2017-11-22T22:43:38.341Z,4.20
2017-11-22T22:46:06.483Z,4.20
2017-11-22T22:48:34.717Z,4.20
2017-11-22T22:51:03.658Z,4.20
2017-11-22T22:53:32.615Z,4.20
2017-11-22T22:56:00.759Z,4.10
2017-11-22T22:58:28.878Z,4.20
2017-11-22T23:00:57.130Z,4.20
2017-11-22T23:03:25.289Z,4.20
2017-11-22T23:05:53.411Z,4.20
2017-11-22T23:08:21.532Z,4.20
2017-11-22T23:10:49.697Z,4.20
2017-11-22T23:13:17.820Z,4.10
2017-11-22T23:15:45.958Z,4.10
2017-11-22T23:18:14.064Z,4.10
2017-11-22T23:20:42.231Z,4.20
2017-11-22T23:23:10.374Z,4.20
2017-11-22T23:25:38.507Z,4.20
2017-11-22T23:28:07.382Z,4.20
2017-11-22T23:30:35.512Z,4.20
2017-11-22T23:33:03.914Z,4.30
2017-11-22T23:35:32.048Z,4.30
2017-11-22T23:38:00.162Z,4.30
2017-11-22T23:40:28.311Z,4.40
2017-11-22T23:42:56.420Z,4.40
2017-11-22T23:45:25.328Z,4.40
2017-11-22T23:47:54.202Z,4.40
2017-11-22T23:50:23.105Z,4.40
2017-11-22T23:52:52.205Z,4.40
2017-11-22T23:55:20.430Z,4.40
2017-11-22T23:57:48.542Z,4.40
